Terminal Aerodrome Forecast
Issued by NWS

Home | Current Version | Previous Version | Text Only | Print | Product List | Glossary On
Versions: 1 2 3 4 5 6 7 8 9 10 11 12 13 14 15 16 17 18 19 20
060
FTUS41 KPHI 071739
TAFMIV
TAF
KMIV 071739Z 0718/0818 31010KT P6SM OVC018
     FM072100 31008KT P6SM SCT025
     FM080100 30003KT P6SM FEW025
     FM081500 29008KT P6SM OVC120=

USA.gov is the U.S. government's official web portal to all federal, state and local government web resources and services.